sensor_id;sensor_type;location;lat;lon;timestamp;temperature;humidity
44775;DHT22;31340;51.402;0.016;2023-04-15T00:01:58;10.30;99.90
44775;DHT22;31340;51.402;0.016;2023-04-15T00:04:27;10.30;99.90
44775;DHT22;31340;51.402;0.016;2023-04-15T00:06:54;10.30;99.90
44775;DHT22;31340;51.402;0.016;2023-04-15T00:09:22;10.30;99.90
44775;DHT22;31340;51.402;0.016;2023-04-15T00:11:50;10.20;99.90
44775;DHT22;31340;51.402;0.016;2023-04-15T00:14:17;10.20;99.90
44775;DHT22;31340;51.402;0.016;2023-04-15T00:16:45;10.20;99.90
44775;DHT22;31340;51.402;0.016;2023-04-15T00:19:13;10.20;99.90
44775;DHT22;31340;51.402;0.016;2023-04-15T00:21:41;10.20;99.90
44775;DHT22;31340;51.402;0.016;2023-04-15T00:24:08;10.20;99.90
44775;DHT22;31340;51.402;0.016;2023-04-15T00:26:36;10.10;99.90
44775;DHT22;31340;51.402;0.016;2023-04-15T00:29:04;10.10;99.90
44775;DHT22;31340;51.402;0.016;2023-04-15T00:31:31;10.20;99.90
44775;DHT22;31340;51.402;0.016;2023-04-15T00:33:59;10.10;99.90
44775;DHT22;31340;51.402;0.016;2023-04-15T00:36:29;10.10;99.90
44775;DHT22;31340;51.402;0.016;2023-04-15T00:38:58;10.10;99.90
44775;DHT22;31340;51.402;0.016;2023-04-15T00:41:26;10.10;99.90
44775;DHT22;31340;51.402;0.016;2023-04-15T00:43:53;10.10;99.90
44775;DHT22;31340;51.402;0.016;2023-04-15T00:46:21;10.10;99.90
44775;DHT22;31340;51.402;0.016;2023-04-15T00:48:49;10.10;99.90
44775;DHT22;31340;51.402;0.016;2023-04-15T00:51:17;10.10;99.90
44775;DHT22;31340;51.402;0.016;2023-04-15T00:53:44;10.10;99.90
44775;DHT22;31340;51.402;0.016;2023-04-15T00:56:12;10.10;99.90
44775;DHT22;31340;51.402;0.016;2023-04-15T00:58:40;10.10;99.90
44775;DHT22;31340;51.402;0.016;2023-04-15T01:01:08;10.00;99.90
44775;DHT22;31340;51.402;0.016;2023-04-15T01:03:36;10.10;99.90
44775;DHT22;31340;51.402;0.016;2023-04-15T01:06:04;10.10;99.90
44775;DHT22;31340;51.402;0.016;2023-04-15T01:08:31;10.10;99.90
44775;DHT22;31340;51.402;0.016;2023-04-15T01:11:00;10.10;99.90
44775;DHT22;31340;51.402;0.016;2023-04-15T01:13:29;10.10;99.90
44775;DHT22;31340;51.402;0.016;2023-04-15T01:15:57;10.10;99.90
44775;DHT22;31340;51.402;0.016;2023-04-15T01:18:25;10.10;99.90
44775;DHT22;31340;51.402;0.016;2023-04-15T01:20:53;10.00;99.90
44775;DHT22;31340;51.402;0.016;2023-04-15T01:23:23;10.10;99.90
44775;DHT22;31340;51.402;0.016;2023-04-15T01:25:52;10.10;99.90
44775;DHT22;31340;51.402;0.016;2023-04-15T01:28:20;10.10;99.90
44775;DHT22;31340;51.402;0.016;2023-04-15T01:30:48;10.00;99.90
44775;DHT22;31340;51.402;0.016;2023-04-15T01:33:16;10.00;99.90
44775;DHT22;31340;51.402;0.016;2023-04-15T01:36:05;10.10;99.90
44775;DHT22;31340;51.402;0.016;2023-04-15T01:38:35;10.00;99.90
44775;DHT22;31340;51.402;0.016;2023-04-15T01:41:03;10.00;99.90
44775;DHT22;31340;51.402;0.016;2023-04-15T01:43:33;10.00;99.90
44775;DHT22;31340;51.402;0.016;2023-04-15T01:46:04;10.00;99.90
44775;DHT22;31340;51.402;0.016;2023-04-15T01:48:33;10.00;99.90
44775;DHT22;31340;51.402;0.016;2023-04-15T01:51:04;10.00;99.90
44775;DHT22;31340;51.402;0.016;2023-04-15T01:53:33;10.00;99.90
44775;DHT22;31340;51.402;0.016;2023-04-15T01:56:03;10.00;99.90
44775;DHT22;31340;51.402;0.016;2023-04-15T01:58:32;10.00;99.90
44775;DHT22;31340;51.402;0.016;2023-04-15T02:01:01;10.00;99.90
44775;DHT22;31340;51.402;0.016;2023-04-15T02:03:32;9.90;99.90
44775;DHT22;31340;51.402;0.016;2023-04-15T02:06:01;10.00;99.90
44775;DHT22;31340;51.402;0.016;2023-04-15T02:08:32;10.00;99.90
44775;DHT22;31340;51.402;0.016;2023-04-15T02:11:01;10.00;99.90
44775;DHT22;31340;51.402;0.016;2023-04-15T02:13:30;9.90;99.90
44775;DHT22;31340;51.402;0.016;2023-04-15T02:15:59;10.00;99.90
44775;DHT22;31340;51.402;0.016;2023-04-15T02:18:28;9.90;99.90
44775;DHT22;31340;51.402;0.016;2023-04-15T02:20:56;9.90;99.90
44775;DHT22;31340;51.402;0.016;2023-04-15T02:23:26;9.90;99.90
44775;DHT22;31340;51.402;0.016;2023-04-15T02:25:55;9.90;99.90
44775;DHT22;31340;51.402;0.016;2023-04-15T02:28:24;9.90;99.90
44775;DHT22;31340;51.402;0.016;2023-04-15T02:30:53;9.90;99.90
44775;DHT22;31340;51.402;0.016;2023-04-15T02:33:24;9.90;99.90
44775;DHT22;31340;51.402;0.016;2023-04-15T02:35:53;9.90;99.90
44775;DHT22;31340;51.402;0.016;2023-04-15T02:38:22;9.80;99.90
44775;DHT22;31340;51.402;0.016;2023-04-15T02:40:51;9.80;99.90
44775;DHT22;31340;51.402;0.016;2023-04-15T02:43:20;9.80;99.90
44775;DHT22;31340;51.402;0.016;2023-04-15T02:45:50;9.80;99.90
44775;DHT22;31340;51.402;0.016;2023-04-15T02:48:21;9.70;99.90
44775;DHT22;31340;51.402;0.016;2023-04-15T02:50:50;9.70;99.90
44775;DHT22;31340;51.402;0.016;2023-04-15T02:53:19;9.70;99.90
44775;DHT22;31340;51.402;0.016;2023-04-15T02:55:48;9.70;99.90
44775;DHT22;31340;51.402;0.016;2023-04-15T02:58:17;9.70;99.90
44775;DHT22;31340;51.402;0.016;2023-04-15T03:00:46;9.70;99.90
44775;DHT22;31340;51.402;0.016;2023-04-15T03:03:15;9.70;99.90
44775;DHT22;31340;51.402;0.016;2023-04-15T03:05:44;9.70;99.90
44775;DHT22;31340;51.402;0.016;2023-04-15T03:08:13;9.60;99.90
44775;DHT22;31340;51.402;0.016;2023-04-15T03:10:42;9.60;99.90
44775;DHT22;31340;51.402;0.016;2023-04-15T03:13:11;9.60;99.90
44775;DHT22;31340;51.402;0.016;2023-04-15T03:15:40;9.60;99.90
44775;DHT22;31340;51.402;0.016;2023-04-15T03:18:09;9.60;99.90
44775;DHT22;31340;51.402;0.016;2023-04-15T03:20:38;9.50;99.90
44775;DHT22;31340;51.402;0.016;2023-04-15T03:23:07;9.60;99.90
44775;DHT22;31340;51.402;0.016;2023-04-15T03:25:36;9.50;99.90
44775;DHT22;31340;51.402;0.016;2023-04-15T03:28:07;9.50;99.90
44775;DHT22;31340;51.402;0.016;2023-04-15T03:30:36;9.50;99.90
44775;DHT22;31340;51.402;0.016;2023-04-15T03:33:05;9.50;99.90
44775;DHT22;31340;51.402;0.016;2023-04-15T03:35:34;9.50;99.90
44775;DHT22;31340;51.402;0.016;2023-04-15T03:38:03;9.40;99.90
44775;DHT22;31340;51.402;0.016;2023-04-15T03:40:32;9.50;99.90
44775;DHT22;31340;51.402;0.016;2023-04-15T03:43:01;9.50;99.90
44775;DHT22;31340;51.402;0.016;2023-04-15T03:45:30;9.50;99.90
44775;DHT22;31340;51.402;0.016;2023-04-15T03:47:59;9.40;99.90
44775;DHT22;31340;51.402;0.016;2023-04-15T03:50:44;9.40;99.90
44775;DHT22;31340;51.402;0.016;2023-04-15T03:53:14;9.40;99.90
44775;DHT22;31340;51.402;0.016;2023-04-15T03:55:43;9.40;99.90
44775;DHT22;31340;51.402;0.016;2023-04-15T03:58:12;9.40;99.90
44775;DHT22;31340;51.402;0.016;2023-04-15T04:00:41;9.50;99.90
44775;DHT22;31340;51.402;0.016;2023-04-15T04:03:10;9.40;99.90
44775;DHT22;31340;51.402;0.016;2023-04-15T04:05:39;9.40;99.90
44775;DHT22;31340;51.402;0.016;2023-04-15T04:08:09;9.40;99.90
44775;DHT22;31340;51.402;0.016;2023-04-15T04:10:41;9.40;99.90
44775;DHT22;31340;51.402;0.016;2023-04-15T04:13:10;9.40;99.90
44775;DHT22;31340;51.402;0.016;2023-04-15T04:15:39;9.40;99.90
44775;DHT22;31340;51.402;0.016;2023-04-15T04:18:08;9.40;99.90
44775;DHT22;31340;51.402;0.016;2023-04-15T04:20:37;9.40;99.90
44775;DHT22;31340;51.402;0.016;2023-04-15T04:23:06;9.40;99.90
44775;DHT22;31340;51.402;0.016;2023-04-15T04:25:35;9.40;99.90
44775;DHT22;31340;51.402;0.016;2023-04-15T04:28:04;9.40;99.90
44775;DHT22;31340;51.402;0.016;2023-04-15T04:30:34;9.40;99.90
44775;DHT22;31340;51.402;0.016;2023-04-15T04:33:04;9.40;99.90
44775;DHT22;31340;51.402;0.016;2023-04-15T04:35:32;9.40;99.90
44775;DHT22;31340;51.402;0.016;2023-04-15T04:38:03;9.30;99.90
44775;DHT22;31340;51.402;0.016;2023-04-15T04:40:32;9.30;99.90
44775;DHT22;31340;51.402;0.016;2023-04-15T04:43:00;9.30;99.90
44775;DHT22;31340;51.402;0.016;2023-04-15T04:45:29;9.30;99.90
44775;DHT22;31340;51.402;0.016;2023-04-15T04:47:58;9.30;99.90
44775;DHT22;31340;51.402;0.016;2023-04-15T04:50:28;9.30;99.90
44775;DHT22;31340;51.402;0.016;2023-04-15T04:52:57;9.30;99.90
44775;DHT22;31340;51.402;0.016;2023-04-15T04:55:26;9.40;99.90
44775;DHT22;31340;51.402;0.016;2023-04-15T04:57:54;9.40;99.90
44775;DHT22;31340;51.402;0.016;2023-04-15T05:00:23;9.40;99.90
44775;DHT22;31340;51.402;0.016;2023-04-15T05:02:53;9.40;99.90
44775;DHT22;31340;51.402;0.016;2023-04-15T05:05:22;9.40;99.90
44775;DHT22;31340;51.402;0.016;2023-04-15T05:07:50;9.40;99.90
44775;DHT22;31340;51.402;0.016;2023-04-15T05:10:19;9.30;99.90
44775;DHT22;31340;51.402;0.016;2023-04-15T05:12:48;9.40;99.90
44775;DHT22;31340;51.402;0.016;2023-04-15T05:15:18;9.40;99.90
44775;DHT22;31340;51.402;0.016;2023-04-15T05:17:46;9.40;99.90
44775;DHT22;31340;51.402;0.016;2023-04-15T05:20:15;9.40;99.90
44775;DHT22;31340;51.402;0.016;2023-04-15T05:22:44;9.40;99.90
44775;DHT22;31340;51.402;0.016;2023-04-15T05:25:13;9.40;99.90
44775;DHT22;31340;51.402;0.016;2023-04-15T05:27:42;9.40;99.90
44775;DHT22;31340;51.402;0.016;2023-04-15T05:30:11;9.40;99.90
44775;DHT22;31340;51.402;0.016;2023-04-15T05:32:41;9.40;99.90
44775;DHT22;31340;51.402;0.016;2023-04-15T05:35:10;9.40;99.90
44775;DHT22;31340;51.402;0.016;2023-04-15T05:37:39;9.40;99.90
44775;DHT22;31340;51.402;0.016;2023-04-15T05:40:08;9.40;99.90
44775;DHT22;31340;51.402;0.016;2023-04-15T05:42:38;9.40;99.90
44775;DHT22;31340;51.402;0.016;2023-04-15T05:45:07;9.50;99.90
44775;DHT22;31340;51.402;0.016;2023-04-15T05:47:36;9.40;99.90
44775;DHT22;31340;51.402;0.016;2023-04-15T05:50:06;9.40;99.90
44775;DHT22;31340;51.402;0.016;2023-04-15T05:52:34;9.40;99.90
44775;DHT22;31340;51.402;0.016;2023-04-15T05:55:03;9.50;99.90
44775;DHT22;31340;51.402;0.016;2023-04-15T05:57:32;9.40;99.90
44775;DHT22;31340;51.402;0.016;2023-04-15T06:00:02;9.50;99.90
44775;DHT22;31340;51.402;0.016;2023-04-15T06:02:37;9.50;99.90
44775;DHT22;31340;51.402;0.016;2023-04-15T06:05:06;9.50;99.90
44775;DHT22;31340;51.402;0.016;2023-04-15T06:07:40;9.50;99.90
44775;DHT22;31340;51.402;0.016;2023-04-15T06:10:09;9.50;99.90
44775;DHT22;31340;51.402;0.016;2023-04-15T06:12:38;9.50;99.90
44775;DHT22;31340;51.402;0.016;2023-04-15T06:15:07;9.60;99.90
44775;DHT22;31340;51.402;0.016;2023-04-15T06:17:37;9.60;99.90
44775;DHT22;31340;51.402;0.016;2023-04-15T06:20:07;9.60;99.90
44775;DHT22;31340;51.402;0.016;2023-04-15T06:22:36;9.70;99.90
44775;DHT22;31340;51.402;0.016;2023-04-15T06:25:09;9.70;99.90
44775;DHT22;31340;51.402;0.016;2023-04-15T06:27:38;9.70;99.90
44775;DHT22;31340;51.402;0.016;2023-04-15T06:30:07;9.70;99.90
44775;DHT22;31340;51.402;0.016;2023-04-15T06:32:36;9.70;99.90
44775;DHT22;31340;51.402;0.016;2023-04-15T06:35:05;9.70;99.90
44775;DHT22;31340;51.402;0.016;2023-04-15T06:37:34;9.70;99.90
44775;DHT22;31340;51.402;0.016;2023-04-15T06:40:04;9.70;99.90
44775;DHT22;31340;51.402;0.016;2023-04-15T06:42:34;9.70;99.90
44775;DHT22;31340;51.402;0.016;2023-04-15T06:45:04;9.80;99.90
44775;DHT22;31340;51.402;0.016;2023-04-15T06:47:34;9.80;99.90
44775;DHT22;31340;51.402;0.016;2023-04-15T06:50:03;9.80;99.90
44775;DHT22;31340;51.402;0.016;2023-04-15T06:52:32;9.80;99.90
44775;DHT22;31340;51.402;0.016;2023-04-15T06:55:01;9.80;99.90
44775;DHT22;31340;51.402;0.016;2023-04-15T06:57:30;9.80;99.90
44775;DHT22;31340;51.402;0.016;2023-04-15T07:00:03;9.80;99.90
44775;DHT22;31340;51.402;0.016;2023-04-15T07:02:33;9.90;99.90
44775;DHT22;31340;51.402;0.016;2023-04-15T07:05:02;9.90;99.90
44775;DHT22;31340;51.402;0.016;2023-04-15T07:07:32;9.90;99.90
44775;DHT22;31340;51.402;0.016;2023-04-15T07:10:00;9.90;99.90
44775;DHT22;31340;51.402;0.016;2023-04-15T07:12:31;9.90;99.90
44775;DHT22;31340;51.402;0.016;2023-04-15T07:14:59;10.00;99.90
44775;DHT22;31340;51.402;0.016;2023-04-15T07:17:28;10.00;99.90
44775;DHT22;31340;51.402;0.016;2023-04-15T07:19:58;10.00;99.90
44775;DHT22;31340;51.402;0.016;2023-04-15T07:22:26;10.00;99.90
44775;DHT22;31340;51.402;0.016;2023-04-15T07:24:55;10.10;99.90
44775;DHT22;31340;51.402;0.016;2023-04-15T07:27:24;10.10;99.90
44775;DHT22;31340;51.402;0.016;2023-04-15T07:29:53;10.10;99.90
44775;DHT22;31340;51.402;0.016;2023-04-15T07:32:22;10.10;99.90
44775;DHT22;31340;51.402;0.016;2023-04-15T07:34:51;10.10;99.90
44775;DHT22;31340;51.402;0.016;2023-04-15T07:37:20;10.10;99.90
44775;DHT22;31340;51.402;0.016;2023-04-15T07:39:52;10.10;99.90
44775;DHT22;31340;51.402;0.016;2023-04-15T07:42:21;10.10;99.90
44775;DHT22;31340;51.402;0.016;2023-04-15T07:44:50;10.10;99.90
44775;DHT22;31340;51.402;0.016;2023-04-15T07:47:19;10.20;99.90
44775;DHT22;31340;51.402;0.016;2023-04-15T07:49:49;10.20;99.90
44775;DHT22;31340;51.402;0.016;2023-04-15T07:52:19;10.20;99.90
44775;DHT22;31340;51.402;0.016;2023-04-15T07:54:48;10.20;99.90
44775;DHT22;31340;51.402;0.016;2023-04-15T07:57:16;10.20;99.90
44775;DHT22;31340;51.402;0.016;2023-04-15T07:59:46;10.30;99.90
44775;DHT22;31340;51.402;0.016;2023-04-15T08:02:14;10.30;99.90
44775;DHT22;31340;51.402;0.016;2023-04-15T08:04:44;10.30;99.90
44775;DHT22;31340;51.402;0.016;2023-04-15T08:07:13;10.40;99.90
44775;DHT22;31340;51.402;0.016;2023-04-15T08:09:42;10.40;99.90
44775;DHT22;31340;51.402;0.016;2023-04-15T08:12:11;10.40;99.90
44775;DHT22;31340;51.402;0.016;2023-04-15T08:14:41;10.40;99.90
44775;DHT22;31340;51.402;0.016;2023-04-15T08:17:10;10.50;99.90
44775;DHT22;31340;51.402;0.016;2023-04-15T08:19:39;10.50;99.90
44775;DHT22;31340;51.402;0.016;2023-04-15T08:22:09;10.50;99.90
44775;DHT22;31340;51.402;0.016;2023-04-15T08:24:46;10.50;99.90
44775;DHT22;31340;51.402;0.016;2023-04-15T08:27:14;10.60;99.90
44775;DHT22;31340;51.402;0.016;2023-04-15T08:29:43;10.60;99.90
44775;DHT22;31340;51.402;0.016;2023-04-15T08:32:13;10.60;99.90
44775;DHT22;31340;51.402;0.016;2023-04-15T08:34:42;10.70;99.90
44775;DHT22;31340;51.402;0.016;2023-04-15T08:37:11;10.70;99.90
44775;DHT22;31340;51.402;0.016;2023-04-15T08:39:40;10.80;99.90
44775;DHT22;31340;51.402;0.016;2023-04-15T08:42:16;10.80;99.90
44775;DHT22;31340;51.402;0.016;2023-04-15T08:44:45;10.90;99.90
44775;DHT22;31340;51.402;0.016;2023-04-15T08:47:19;10.90;99.90
44775;DHT22;31340;51.402;0.016;2023-04-15T08:49:52;11.00;99.90
44775;DHT22;31340;51.402;0.016;2023-04-15T08:52:24;11.00;99.90
44775;DHT22;31340;51.402;0.016;2023-04-15T08:54:56;11.10;99.90
44775;DHT22;31340;51.402;0.016;2023-04-15T08:57:27;11.20;99.90
44775;DHT22;31340;51.402;0.016;2023-04-15T08:59:56;11.30;99.90
44775;DHT22;31340;51.402;0.016;2023-04-15T09:02:25;11.30;99.90
44775;DHT22;31340;51.402;0.016;2023-04-15T09:04:55;11.40;99.90
44775;DHT22;31340;51.402;0.016;2023-04-15T09:07:24;11.50;99.90
44775;DHT22;31340;51.402;0.016;2023-04-15T09:09:53;11.60;99.90
44775;DHT22;31340;51.402;0.016;2023-04-15T09:12:21;11.70;99.90
44775;DHT22;31340;51.402;0.016;2023-04-15T09:14:50;11.70;99.90
44775;DHT22;31340;51.402;0.016;2023-04-15T09:17:20;11.80;99.90
44775;DHT22;31340;51.402;0.016;2023-04-15T09:20:02;11.90;99.90
44775;DHT22;31340;51.402;0.016;2023-04-15T09:22:35;11.90;99.90
44775;DHT22;31340;51.402;0.016;2023-04-15T09:25:26;12.00;99.90
44775;DHT22;31340;51.402;0.016;2023-04-15T09:27:57;12.10;99.90
44775;DHT22;31340;51.402;0.016;2023-04-15T09:30:27;12.10;99.90
44775;DHT22;31340;51.402;0.016;2023-04-15T09:32:58;12.20;99.90
44775;DHT22;31340;51.402;0.016;2023-04-15T09:35:27;12.20;99.90
44775;DHT22;31340;51.402;0.016;2023-04-15T09:38:14;12.30;99.90
44775;DHT22;31340;51.402;0.016;2023-04-15T09:40:43;12.40;99.90
44775;DHT22;31340;51.402;0.016;2023-04-15T09:43:11;12.40;99.90
44775;DHT22;31340;51.402;0.016;2023-04-15T09:45:47;12.50;99.90
44775;DHT22;31340;51.402;0.016;2023-04-15T09:48:21;12.60;99.90
44775;DHT22;31340;51.402;0.016;2023-04-15T09:50:50;12.70;99.90
44775;DHT22;31340;51.402;0.016;2023-04-15T09:53:22;12.80;99.90
44775;DHT22;31340;51.402;0.016;2023-04-15T09:55:56;12.90;99.90
44775;DHT22;31340;51.402;0.016;2023-04-15T09:58:26;13.00;99.90
44775;DHT22;31340;51.402;0.016;2023-04-15T10:00:56;13.00;99.90
44775;DHT22;31340;51.402;0.016;2023-04-15T10:03:28;13.10;99.90
44775;DHT22;31340;51.402;0.016;2023-04-15T10:05:59;13.20;99.90
44775;DHT22;31340;51.402;0.016;2023-04-15T10:08:30;13.30;99.90
44775;DHT22;31340;51.402;0.016;2023-04-15T10:11:01;13.40;99.90
44775;DHT22;31340;51.402;0.016;2023-04-15T10:13:31;13.50;99.90
44775;DHT22;31340;51.402;0.016;2023-04-15T10:16:09;13.60;99.90
44775;DHT22;31340;51.402;0.016;2023-04-15T10:18:42;13.80;99.90
44775;DHT22;31340;51.402;0.016;2023-04-15T10:21:12;13.80;99.90
44775;DHT22;31340;51.402;0.016;2023-04-15T10:23:47;13.80;99.90
44775;DHT22;31340;51.402;0.016;2023-04-15T10:26:16;13.90;99.90
44775;DHT22;31340;51.402;0.016;2023-04-15T10:28:45;13.90;99.90
44775;DHT22;31340;51.402;0.016;2023-04-15T10:31:17;14.00;99.90
44775;DHT22;31340;51.402;0.016;2023-04-15T10:33:48;14.00;99.90
44775;DHT22;31340;51.402;0.016;2023-04-15T10:36:18;14.00;99.90
44775;DHT22;31340;51.402;0.016;2023-04-15T10:38:47;14.00;99.90
44775;DHT22;31340;51.402;0.016;2023-04-15T10:41:26;14.10;99.90
44775;DHT22;31340;51.402;0.016;2023-04-15T10:44:04;14.00;99.90
44775;DHT22;31340;51.402;0.016;2023-04-15T10:46:40;14.10;99.90
44775;DHT22;31340;51.402;0.016;2023-04-15T10:51:44;14.10;99.90
44775;DHT22;31340;51.402;0.016;2023-04-15T10:54:31;14.10;99.90
44775;DHT22;31340;51.402;0.016;2023-04-15T10:57:20;14.10;99.90
44775;DHT22;31340;51.402;0.016;2023-04-15T11:00:17;14.20;99.90
44775;DHT22;31340;51.402;0.016;2023-04-15T11:02:52;14.20;99.90
44775;DHT22;31340;51.402;0.016;2023-04-15T11:06:09;14.20;99.90
44775;DHT22;31340;51.402;0.016;2023-04-15T11:08:12;14.30;99.90
44775;DHT22;31340;51.402;0.016;2023-04-15T11:15:40;14.50;99.90
44775;DHT22;31340;51.402;0.016;2023-04-15T11:18:16;14.50;99.90
44775;DHT22;31340;51.402;0.016;2023-04-15T11:20:52;14.60;99.90
44775;DHT22;31340;51.402;0.016;2023-04-15T11:23:32;14.70;99.90
44775;DHT22;31340;51.402;0.016;2023-04-15T11:26:04;14.80;99.90
44775;DHT22;31340;51.402;0.016;2023-04-15T11:28:38;15.00;99.90
44775;DHT22;31340;51.402;0.016;2023-04-15T11:31:10;15.10;99.90
44775;DHT22;31340;51.402;0.016;2023-04-15T11:33:59;15.20;99.90
44775;DHT22;31340;51.402;0.016;2023-04-15T11:36:29;15.40;99.90
44775;DHT22;31340;51.402;0.016;2023-04-15T11:38:59;15.50;99.90
44775;DHT22;31340;51.402;0.016;2023-04-15T11:41:28;15.60;99.90
44775;DHT22;31340;51.402;0.016;2023-04-15T11:43:57;15.70;99.90
44775;DHT22;31340;51.402;0.016;2023-04-15T11:46:29;15.90;99.90
44775;DHT22;31340;51.402;0.016;2023-04-15T11:48:59;16.00;99.90
44775;DHT22;31340;51.402;0.016;2023-04-15T11:51:31;16.20;99.90
44775;DHT22;31340;51.402;0.016;2023-04-15T11:53:59;16.40;99.90
44775;DHT22;31340;51.402;0.016;2023-04-15T11:56:26;16.60;99.90
44775;DHT22;31340;51.402;0.016;2023-04-15T11:58:55;16.70;99.90
44775;DHT22;31340;51.402;0.016;2023-04-15T12:01:37;16.90;99.70
44775;DHT22;31340;51.402;0.016;2023-04-15T12:04:11;17.20;99.10
44775;DHT22;31340;51.402;0.016;2023-04-15T12:06:39;17.40;98.80
44775;DHT22;31340;51.402;0.016;2023-04-15T12:09:10;17.70;98.30
44775;DHT22;31340;51.402;0.016;2023-04-15T12:11:44;17.90;97.70
44775;DHT22;31340;51.402;0.016;2023-04-15T12:17:00;18.30;96.90
44775;DHT22;31340;51.402;0.016;2023-04-15T12:19:36;18.50;96.70
44775;DHT22;31340;51.402;0.016;2023-04-15T12:22:08;18.70;96.50
44775;DHT22;31340;51.402;0.016;2023-04-15T12:24:37;18.90;95.80
44775;DHT22;31340;51.402;0.016;2023-04-15T12:27:11;19.10;95.30
44775;DHT22;31340;51.402;0.016;2023-04-15T12:29:40;19.40;94.80
44775;DHT22;31340;51.402;0.016;2023-04-15T12:32:16;19.50;94.40
44775;DHT22;31340;51.402;0.016;2023-04-15T12:34:52;19.60;93.80
44775;DHT22;31340;51.402;0.016;2023-04-15T12:37:20;19.70;93.30
44775;DHT22;31340;51.402;0.016;2023-04-15T12:39:49;19.80;92.90
44775;DHT22;31340;51.402;0.016;2023-04-15T12:42:17;20.00;93.10
44775;DHT22;31340;51.402;0.016;2023-04-15T12:44:45;20.00;92.40
44775;DHT22;31340;51.402;0.016;2023-04-15T12:47:13;20.10;92.40
44775;DHT22;31340;51.402;0.016;2023-04-15T12:49:40;20.30;92.00
44775;DHT22;31340;51.402;0.016;2023-04-15T12:52:08;20.40;91.60
44775;DHT22;31340;51.402;0.016;2023-04-15T12:54:37;20.40;91.20
44775;DHT22;31340;51.402;0.016;2023-04-15T12:57:05;20.60;90.90
44775;DHT22;31340;51.402;0.016;2023-04-15T12:59:34;20.70;90.60
44775;DHT22;31340;51.402;0.016;2023-04-15T13:02:02;20.80;89.50
44775;DHT22;31340;51.402;0.016;2023-04-15T13:04:30;20.80;88.20
44775;DHT22;31340;51.402;0.016;2023-04-15T13:06:58;20.80;87.20
44775;DHT22;31340;51.402;0.016;2023-04-15T13:09:26;20.80;87.10
44775;DHT22;31340;51.402;0.016;2023-04-15T13:11:54;20.80;86.70
44775;DHT22;31340;51.402;0.016;2023-04-15T13:14:22;20.80;86.60
44775;DHT22;31340;51.402;0.016;2023-04-15T13:16:50;20.70;85.90
44775;DHT22;31340;51.402;0.016;2023-04-15T13:19:17;20.70;86.00
44775;DHT22;31340;51.402;0.016;2023-04-15T13:21:45;20.60;85.40
44775;DHT22;31340;51.402;0.016;2023-04-15T13:24:12;20.40;84.80
44775;DHT22;31340;51.402;0.016;2023-04-15T13:26:40;20.30;85.00
44775;DHT22;31340;51.402;0.016;2023-04-15T13:29:08;20.20;84.30
44775;DHT22;31340;51.402;0.016;2023-04-15T13:31:36;20.20;85.40
44775;DHT22;31340;51.402;0.016;2023-04-15T13:34:03;20.30;85.10
44775;DHT22;31340;51.402;0.016;2023-04-15T13:36:32;20.30;84.50
44775;DHT22;31340;51.402;0.016;2023-04-15T13:38:59;20.30;83.80
44775;DHT22;31340;51.402;0.016;2023-04-15T13:41:27;20.40;83.50
44775;DHT22;31340;51.402;0.016;2023-04-15T13:43:54;20.50;83.70
44775;DHT22;31340;51.402;0.016;2023-04-15T13:46:23;20.60;83.10
44775;DHT22;31340;51.402;0.016;2023-04-15T13:48:52;20.70;82.80
44775;DHT22;31340;51.402;0.016;2023-04-15T13:51:20;20.80;82.20
44775;DHT22;31340;51.402;0.016;2023-04-15T13:53:47;20.80;82.90
44775;DHT22;31340;51.402;0.016;2023-04-15T13:56:15;21.00;83.10
44775;DHT22;31340;51.402;0.016;2023-04-15T13:58:42;21.20;82.30
44775;DHT22;31340;51.402;0.016;2023-04-15T14:01:10;21.40;82.80
44775;DHT22;31340;51.402;0.016;2023-04-15T14:03:38;21.60;81.30
44775;DHT22;31340;51.402;0.016;2023-04-15T14:06:05;21.90;80.60
44775;DHT22;31340;51.402;0.016;2023-04-15T14:08:33;22.20;80.00
44775;DHT22;31340;51.402;0.016;2023-04-15T14:11:01;22.40;79.60
44775;DHT22;31340;51.402;0.016;2023-04-15T14:13:28;22.70;79.50
44775;DHT22;31340;51.402;0.016;2023-04-15T14:15:56;23.00;77.80
44775;DHT22;31340;51.402;0.016;2023-04-15T14:18:24;23.30;75.70
44775;DHT22;31340;51.402;0.016;2023-04-15T14:20:51;23.60;73.00
44775;DHT22;31340;51.402;0.016;2023-04-15T14:23:19;23.80;70.50
44775;DHT22;31340;51.402;0.016;2023-04-15T14:25:47;24.00;71.20
44775;DHT22;31340;51.402;0.016;2023-04-15T14:28:14;24.20;70.00
44775;DHT22;31340;51.402;0.016;2023-04-15T14:30:42;24.50;69.20
44775;DHT22;31340;51.402;0.016;2023-04-15T14:33:11;24.70;69.40
44775;DHT22;31340;51.402;0.016;2023-04-15T14:35:39;25.00;68.00
44775;DHT22;31340;51.402;0.016;2023-04-15T14:38:06;25.20;67.10
44775;DHT22;31340;51.402;0.016;2023-04-15T14:40:37;25.40;66.00
44775;DHT22;31340;51.402;0.016;2023-04-15T14:43:05;25.30;62.50
44775;DHT22;31340;51.402;0.016;2023-04-15T14:45:33;25.20;61.50
44775;DHT22;31340;51.402;0.016;2023-04-15T14:48:01;25.10;60.80
44775;DHT22;31340;51.402;0.016;2023-04-15T14:50:29;25.10;60.50
44775;DHT22;31340;51.402;0.016;2023-04-15T14:52:57;24.90;60.10
44775;DHT22;31340;51.402;0.016;2023-04-15T14:55:25;24.60;60.50
44775;DHT22;31340;51.402;0.016;2023-04-15T14:57:53;24.50;61.80
44775;DHT22;31340;51.402;0.016;2023-04-15T15:00:20;24.20;62.40
44775;DHT22;31340;51.402;0.016;2023-04-15T15:02:48;23.90;63.30
44775;DHT22;31340;51.402;0.016;2023-04-15T15:05:16;23.60;62.80
44775;DHT22;31340;51.402;0.016;2023-04-15T15:07:44;23.40;64.20
44775;DHT22;31340;51.402;0.016;2023-04-15T15:10:12;23.20;66.40
44775;DHT22;31340;51.402;0.016;2023-04-15T15:12:39;22.90;67.40
44775;DHT22;31340;51.402;0.016;2023-04-15T15:15:07;22.70;68.60
44775;DHT22;31340;51.402;0.016;2023-04-15T15:17:55;22.40;70.10
44775;DHT22;31340;51.402;0.016;2023-04-15T15:20:23;22.20;71.10
44775;DHT22;31340;51.402;0.016;2023-04-15T15:22:51;22.10;71.90
44775;DHT22;31340;51.402;0.016;2023-04-15T15:25:19;21.90;70.90
44775;DHT22;31340;51.402;0.016;2023-04-15T15:27:47;21.70;71.00
44775;DHT22;31340;51.402;0.016;2023-04-15T15:30:15;21.50;70.90
44775;DHT22;31340;51.402;0.016;2023-04-15T15:32:42;21.40;71.20
44775;DHT22;31340;51.402;0.016;2023-04-15T15:35:11;21.20;71.20
44775;DHT22;31340;51.402;0.016;2023-04-15T15:37:40;21.10;70.70
44775;DHT22;31340;51.402;0.016;2023-04-15T15:40:08;21.00;70.80
44775;DHT22;31340;51.402;0.016;2023-04-15T15:42:35;20.90;70.60
44775;DHT22;31340;51.402;0.016;2023-04-15T15:45:03;20.90;70.90
44775;DHT22;31340;51.402;0.016;2023-04-15T15:47:31;21.00;71.90
44775;DHT22;31340;51.402;0.016;2023-04-15T15:50:00;21.00;72.30
44775;DHT22;31340;51.402;0.016;2023-04-15T15:52:30;20.90;72.00
44775;DHT22;31340;51.402;0.016;2023-04-15T15:54:58;20.80;72.20
44775;DHT22;31340;51.402;0.016;2023-04-15T15:57:25;20.70;72.00
44775;DHT22;31340;51.402;0.016;2023-04-15T15:59:53;20.60;72.00
44775;DHT22;31340;51.402;0.016;2023-04-15T16:02:36;20.60;72.60